Time;durP1;ratioP1;P1;durP2;ratioP2;P2;SDS_P1;SDS_P2;PMS_P1;PMS_P2;Temp;Humidity;BMP_temperature;BMP_pressure;BME280_temperature;BME280_humidity;BME280_pressure;Samples;Min_cycle;Max_cycle;Signal;HPM_P1;HPM_P2
2022/03/26 00:00:51;;;;;;;43.58;26.90;;;4.60;99.90;;;;;;5079784;28;20067;-76
2022/03/26 00:03:17;;;;;;;43.25;27.77;;;4.50;99.90;;;;;;5050314;28;20609;-77
2022/03/26 00:05:46;;;;;;;44.03;27.38;;;4.50;99.90;;;;;;5050922;28;20021;-77
2022/03/26 00:08:13;;;;;;;41.85;27.50;;;4.50;99.90;;;;;;5049758;28;20378;-77
2022/03/26 00:10:39;;;;;;;43.60;27.00;;;4.40;99.90;;;;;;5049372;28;20044;-76
2022/03/26 00:13:05;;;;;;;44.72;27.38;;;4.50;99.90;;;;;;5049628;28;20128;-77
2022/03/26 00:15:30;;;;;;;42.55;26.33;;;4.50;99.90;;;;;;5049351;28;20116;-77
2022/03/26 00:17:56;;;;;;;43.38;28.13;;;4.50;99.90;;;;;;5048268;28;20049;-77
2022/03/26 00:20:22;;;;;;;46.40;28.05;;;4.50;99.90;;;;;;5049303;28;20499;-77
2022/03/26 00:22:48;;;;;;;46.40;28.60;;;4.50;99.90;;;;;;5049614;28;20403;-77
2022/03/26 00:25:15;;;;;;;46.92;28.85;;;4.50;99.90;;;;;;5050256;28;20071;-77
2022/03/26 00:27:41;;;;;;;45.60;28.85;;;4.50;99.90;;;;;;5053295;28;20052;-75
2022/03/26 00:30:07;;;;;;;44.67;28.90;;;4.50;99.90;;;;;;5036666;28;20394;-77
2022/03/26 00:32:33;;;;;;;47.97;29.75;;;4.50;99.90;;;;;;5053260;28;20079;-77
2022/03/26 00:34:59;;;;;;;46.15;29.48;;;4.50;99.90;;;;;;5034483;28;20041;-75
2022/03/26 00:37:24;;;;;;;49.88;29.80;;;4.50;99.90;;;;;;5053376;28;20053;-76
2022/03/26 00:39:50;;;;;;;47.40;29.25;;;4.50;99.90;;;;;;5052654;28;20068;-76
2022/03/26 00:42:16;;;;;;;47.78;29.25;;;4.50;99.90;;;;;;5052961;28;20106;-76
2022/03/26 00:44:41;;;;;;;46.13;28.80;;;4.50;99.90;;;;;;5053090;28;20045;-77
2022/03/26 00:47:07;;;;;;;50.20;31.23;;;4.40;99.90;;;;;;5036248;28;20049;-76
2022/03/26 00:49:34;;;;;;;49.53;30.27;;;4.40;99.90;;;;;;5052817;28;20446;-76
2022/03/26 00:51:59;;;;;;;51.78;32.08;;;4.40;99.90;;;;;;5051577;28;20049;-77
2022/03/26 00:54:25;;;;;;;45.58;29.55;;;4.40;99.90;;;;;;5053852;28;20052;-77
2022/03/26 00:56:51;;;;;;;50.22;30.42;;;4.40;99.90;;;;;;5069291;28;20045;-76
2022/03/26 00:59:17;;;;;;;48.75;30.45;;;4.30;99.90;;;;;;5035896;28;20041;-77
2022/03/26 01:01:42;;;;;;;53.65;33.83;;;4.20;99.90;;;;;;5052669;28;20029;-76
2022/03/26 01:04:08;;;;;;;65.35;38.72;;;4.10;99.90;;;;;;5039693;28;20174;-76
2022/03/26 01:06:34;;;;;;;64.90;37.30;;;4.00;99.90;;;;;;5051929;28;20055;-76
2022/03/26 01:09:00;;;;;;;61.13;36.33;;;4.00;99.90;;;;;;5052457;28;20052;-76
2022/03/26 01:11:26;;;;;;;54.22;34.15;;;4.10;99.90;;;;;;5052299;28;20052;-75
2022/03/26 01:13:55;;;;;;;55.47;33.20;;;4.10;99.90;;;;;;5052184;28;20033;-75
2022/03/26 01:16:22;;;;;;;56.53;34.20;;;4.20;99.90;;;;;;5052391;28;20049;-75
2022/03/26 01:18:49;;;;;;;59.55;36.17;;;4.10;99.90;;;;;;5051905;28;20049;-75
2022/03/26 01:21:15;;;;;;;54.78;33.75;;;4.10;99.90;;;;;;5052565;28;20084;-75
2022/03/26 01:23:40;;;;;;;57.17;35.80;;;4.00;99.90;;;;;;5050560;28;20122;-77
2022/03/26 01:26:06;;;;;;;54.85;34.38;;;4.00;99.90;;;;;;5068921;28;20033;-76
2022/03/26 01:28:32;;;;;;;53.55;30.77;;;4.00;99.90;;;;;;5052125;28;20092;-76
2022/03/26 01:31:00;;;;;;;36.70;23.38;;;4.00;99.90;;;;;;5052182;28;20075;-76
2022/03/26 01:33:26;;;;;;;34.15;21.95;;;4.00;99.90;;;;;;5051746;28;20045;-76
2022/03/26 01:35:51;;;;;;;33.65;20.90;;;3.90;99.90;;;;;;5051826;28;20059;-76
2022/03/26 01:38:18;;;;;;;29.65;19.17;;;4.00;99.90;;;;;;5050236;28;20077;-76
2022/03/26 01:40:43;;;;;;;29.80;18.52;;;3.90;99.90;;;;;;5046550;28;20049;-76
2022/03/26 01:43:09;;;;;;;26.88;17.23;;;3.90;99.90;;;;;;5051742;28;20510;-76
2022/03/26 01:45:35;;;;;;;29.23;17.45;;;3.80;99.90;;;;;;5051894;28;20511;-76
2022/03/26 01:48:01;;;;;;;30.00;17.58;;;3.80;99.90;;;;;;5051651;28;20128;-76
2022/03/26 01:50:28;;;;;;;24.30;15.73;;;3.80;99.90;;;;;;5085248;28;20471;-76
2022/03/26 01:52:54;;;;;;;28.38;17.33;;;3.80;99.90;;;;;;5034853;28;20044;-76
2022/03/26 01:55:22;;;;;;;26.58;18.15;;;3.80;99.90;;;;;;5050554;28;20029;-76
2022/03/26 01:57:49;;;;;;;26.63;17.02;;;3.80;99.90;;;;;;5068119;28;20037;-77
2022/03/26 02:00:15;;;;;;;29.20;18.67;;;3.70;99.90;;;;;;5051040;28;20041;-76
2022/03/26 02:02:44;;;;;;;28.33;18.05;;;3.70;99.90;;;;;;5051691;28;20382;-77
2022/03/26 02:05:14;;;;;;;33.38;20.02;;;3.70;99.90;;;;;;5051419;28;20060;-77
2022/03/26 02:07:40;;;;;;;30.70;20.67;;;3.60;99.90;;;;;;5051510;28;20041;-76
2022/03/26 02:10:11;;;;;;;31.83;20.58;;;3.60;99.90;;;;;;5052484;28;20041;-76
2022/03/26 02:12:37;;;;;;;38.25;22.58;;;3.60;99.90;;;;;;5045562;28;20072;-77
2022/03/26 02:15:04;;;;;;;40.80;22.90;;;3.60;99.90;;;;;;5051096;28;20503;-76
2022/03/26 02:17:30;;;;;;;37.60;22.80;;;3.50;99.90;;;;;;5051229;28;20127;-76
2022/03/26 02:19:58;;;;;;;43.92;25.10;;;3.50;99.90;;;;;;5050871;28;20040;-76
2022/03/26 02:22:25;;;;;;;41.60;24.73;;;3.50;99.90;;;;;;5051308;28;20086;-76
2022/03/26 02:24:51;;;;;;;47.15;26.98;;;3.40;99.90;;;;;;5034090;28;20044;-76
2022/03/26 02:27:17;;;;;;;51.28;29.08;;;3.40;99.90;;;;;;5049896;28;20033;-76
2022/03/26 02:29:42;;;;;;;54.10;30.85;;;3.40;99.90;;;;;;5050492;28;20089;-76
2022/03/26 02:32:08;;;;;;;62.47;32.78;;;3.40;99.90;;;;;;5034399;28;20532;-76
2022/03/26 02:34:34;;;;;;;55.88;31.95;;;3.40;99.90;;;;;;5050593;28;20056;-76
2022/03/26 02:37:00;;;;;;;58.28;32.92;;;3.40;99.90;;;;;;5051110;28;20048;-76
2022/03/26 02:39:27;;;;;;;58.22;33.17;;;3.30;99.90;;;;;;5050122;28;20049;-76
2022/03/26 02:41:52;;;;;;;57.90;32.50;;;3.30;99.90;;;;;;5050745;28;20079;-76
2022/03/26 02:44:19;;;;;;;58.63;32.75;;;3.30;99.90;;;;;;5049545;28;20363;-76
2022/03/26 02:46:45;;;;;;;56.75;32.30;;;3.30;99.90;;;;;;5034106;28;20029;-77
2022/03/26 02:49:15;;;;;;;56.65;32.33;;;3.30;99.90;;;;;;5050099;28;20573;-77
2022/03/26 02:51:41;;;;;;;53.88;31.95;;;3.20;99.90;;;;;;5050627;28;20041;-77
2022/03/26 02:54:18;;;;;;;54.83;32.30;;;3.20;99.90;;;;;;5050395;28;20052;-76
2022/03/26 02:56:51;;;;;;;57.45;33.67;;;3.20;99.90;;;;;;5033901;28;20032;-76
2022/03/26 02:59:18;;;;;;;66.10;37.25;;;3.20;99.90;;;;;;5050145;28;20056;-76
2022/03/26 03:01:44;;;;;;;66.15;36.53;;;3.20;99.90;;;;;;5082654;28;20075;-76
2022/03/26 03:04:10;;;;;;;59.15;35.00;;;3.20;99.90;;;;;;5050028;28;20136;-76
2022/03/26 03:06:36;;;;;;;68.10;37.30;;;3.10;99.90;;;;;;5034041;28;20518;-76
2022/03/26 03:09:06;;;;;;;82.30;42.85;;;3.10;99.90;;;;;;5050168;28;20037;-77
2022/03/26 03:11:33;;;;;;;79.97;42.33;;;2.90;99.90;;;;;;5050269;28;20044;-77
2022/03/26 03:13:59;;;;;;;65.68;36.67;;;2.90;99.90;;;;;;5050270;28;20116;-77
2022/03/26 03:16:25;;;;;;;65.38;36.63;;;2.90;99.90;;;;;;5033506;28;20132;-76
2022/03/26 03:18:51;;;;;;;67.00;38.28;;;3.00;99.90;;;;;;5048786;28;20120;-76
2022/03/26 03:21:17;;;;;;;74.95;41.25;;;3.00;99.90;;;;;;5051302;28;20039;-77
2022/03/26 03:23:42;;;;;;;73.70;41.05;;;3.00;99.90;;;;;;5060878;28;20447;-77
2022/03/26 03:26:08;;;;;;;70.97;39.25;;;3.00;99.90;;;;;;5050041;28;20124;-77
2022/03/26 03:28:34;;;;;;;79.38;41.45;;;3.00;99.90;;;;;;5049882;28;20450;-76
2022/03/26 03:31:00;;;;;;;71.95;39.83;;;3.00;99.90;;;;;;5049956;28;20499;-76
2022/03/26 03:33:26;;;;;;;75.88;41.35;;;3.00;99.90;;;;;;5083413;28;20048;-77
2022/03/26 03:35:51;;;;;;;77.93;44.55;;;2.90;99.90;;;;;;5044120;28;20045;-77
2022/03/26 03:38:17;;;;;;;81.95;44.83;;;2.90;99.90;;;;;;5074538;28;20092;-77
2022/03/26 03:40:42;;;;;;;71.20;40.50;;;3.00;99.90;;;;;;5049830;28;20088;-76
2022/03/26 03:43:08;;;;;;;68.28;39.35;;;2.90;99.90;;;;;;5049908;28;20429;-77
2022/03/26 03:45:34;;;;;;;70.50;37.70;;;2.90;99.90;;;;;;5049668;28;20041;-77
2022/03/26 03:48:00;;;;;;;69.82;37.35;;;2.90;99.90;;;;;;5033447;28;20037;-76
2022/03/26 03:50:26;;;;;;;63.13;38.10;;;2.90;99.90;;;;;;5032899;28;20052;-77
2022/03/26 03:52:52;;;;;;;60.25;37.95;;;2.90;99.90;;;;;;5033097;28;20548;-77
2022/03/26 03:55:18;;;;;;;61.88;36.72;;;2.90;99.90;;;;;;5049359;28;20041;-77
2022/03/26 03:57:44;;;;;;;61.60;36.65;;;2.80;99.90;;;;;;5044421;28;20045;-76
2022/03/26 04:00:12;;;;;;;63.83;36.58;;;2.80;99.90;;;;;;5049297;28;20041;-76
2022/03/26 04:02:38;;;;;;;60.83;34.92;;;2.80;99.90;;;;;;5052785;28;20049;-76
2022/03/26 04:05:04;;;;;;;53.53;32.08;;;2.70;99.90;;;;;;5035615;28;20048;-76
2022/03/26 04:07:30;;;;;;;56.33;32.25;;;2.70;99.90;;;;;;5051552;22;20139;-79
2022/03/26 04:09:55;;;;;;;55.53;32.08;;;2.60;99.90;;;;;;5055399;28;20515;-79
2022/03/26 04:12:21;;;;;;;59.53;34.15;;;2.60;99.90;;;;;;5054590;28;20416;-79
2022/03/26 04:14:46;;;;;;;60.47;33.67;;;2.60;99.90;;;;;;5055561;28;20493;-79
2022/03/26 04:17:12;;;;;;;60.80;33.40;;;2.60;99.90;;;;;;5055441;28;20045;-79
2022/03/26 04:19:39;;;;;;;66.28;35.85;;;2.40;99.90;;;;;;5038920;28;20079;-80
2022/03/26 04:22:08;;;;;;;77.30;39.80;;;2.40;99.90;;;;;;5038312;28;20053;-80
2022/03/26 04:24:36;;;;;;;72.20;38.83;;;2.10;99.90;;;;;;5054918;28;20055;-80
2022/03/26 04:27:02;;;;;;;75.47;39.80;;;2.10;99.90;;;;;;5055185;28;20037;-80
2022/03/26 04:29:28;;;;;;;73.72;39.53;;;2.20;99.90;;;;;;5049968;28;20454;-80
2022/03/26 04:31:54;;;;;;;80.47;41.65;;;2.10;99.90;;;;;;5055032;28;20090;-80
2022/03/26 04:34:19;;;;;;;80.43;41.55;;;2.00;99.90;;;;;;5039297;28;20175;-80
2022/03/26 04:36:45;;;;;;;82.03;42.80;;;2.00;99.90;;;;;;5034866;28;20038;-80
2022/03/26 04:39:11;;;;;;;72.30;39.88;;;2.00;99.90;;;;;;5036206;28;20038;-80
2022/03/26 04:41:36;;;;;;;75.75;41.15;;;2.10;99.90;;;;;;5053933;28;20371;-79
2022/03/26 04:44:02;;;;;;;75.57;41.25;;;2.10;99.90;;;;;;5038218;28;20048;-80
2022/03/26 04:46:28;;;;;;;74.70;41.63;;;2.10;99.90;;;;;;5049228;28;20038;-79
2022/03/26 04:48:54;;;;;;;74.68;41.10;;;2.10;99.90;;;;;;5035103;28;20091;-80
2022/03/26 04:51:19;;;;;;;77.82;41.55;;;2.10;99.90;;;;;;5034884;28;20380;-80
2022/03/26 04:53:45;;;;;;;82.40;42.70;;;2.10;99.90;;;;;;5035317;28;20119;-80
2022/03/26 04:56:11;;;;;;;89.18;45.28;;;2.10;99.90;;;;;;5035027;28;20045;-80
2022/03/26 04:58:36;;;;;;;79.88;42.40;;;2.10;99.90;;;;;;5034846;28;20056;-80
2022/03/26 05:01:02;;;;;;;75.00;39.65;;;2.10;99.90;;;;;;5049272;28;20097;-80
2022/03/26 05:03:28;;;;;;;78.32;41.00;;;2.10;99.90;;;;;;5071710;28;20393;-80
2022/03/26 05:05:54;;;;;;;77.63;42.42;;;2.00;99.90;;;;;;5046305;28;20043;-80
2022/03/26 05:08:19;;;;;;;73.88;41.78;;;2.10;99.90;;;;;;5054721;28;20642;-80
2022/03/26 05:10:45;;;;;;;77.72;42.08;;;2.00;99.90;;;;;;5042903;28;20040;-80
2022/03/26 05:13:11;;;;;;;82.20;42.85;;;2.00;99.90;;;;;;5034476;28;20095;-80
2022/03/26 05:15:37;;;;;;;87.00;44.35;;;1.90;99.90;;;;;;5050295;28;20045;-80
2022/03/26 05:18:03;;;;;;;88.43;47.45;;;1.90;99.90;;;;;;5054439;28;20037;-80
2022/03/26 05:20:29;;;;;;;94.97;48.63;;;1.80;99.90;;;;;;5047786;28;20037;-80
2022/03/26 05:22:54;;;;;;;90.13;47.05;;;1.80;99.90;;;;;;5034032;28;20517;-80
2022/03/26 05:25:20;;;;;;;86.15;46.20;;;1.90;99.90;;;;;;5040325;28;20041;-80
2022/03/26 05:27:51;;;;;;;83.28;44.25;;;1.80;99.90;;;;;;5054078;28;20477;-80
2022/03/26 05:30:18;;;;;;;87.85;46.13;;;1.80;99.90;;;;;;5053589;28;20088;-79
2022/03/26 05:32:44;;;;;;;84.90;43.47;;;1.80;99.90;;;;;;5053916;28;20033;-80
2022/03/26 05:35:13;;;;;;;88.28;44.67;;;1.90;99.90;;;;;;5048701;28;20080;-80
2022/03/26 05:37:49;;;;;;;94.10;49.17;;;1.90;99.90;;;;;;5037471;28;20045;-80
2022/03/26 05:40:17;;;;;;;86.78;44.92;;;1.90;99.90;;;;;;5057151;28;20375;-80
2022/03/26 05:42:45;;;;;;;93.90;47.25;;;1.90;99.90;;;;;;5069367;28;20041;-80
2022/03/26 05:45:11;;;;;;;86.43;45.95;;;2.00;99.90;;;;;;5052020;28;20082;-81
2022/03/26 05:47:37;;;;;;;88.68;46.72;;;2.00;99.90;;;;;;5049938;28;20045;-80
2022/03/26 05:50:09;;;;;;;89.03;47.53;;;2.00;99.90;;;;;;5038301;28;20056;-80
2022/03/26 05:52:34;;;;;;;91.10;48.60;;;2.10;99.90;;;;;;5034672;28;20048;-79
2022/03/26 05:55:00;;;;;;;97.13;47.67;;;2.10;99.90;;;;;;5045412;28;20042;-80
2022/03/26 05:57:25;;;;;;;88.57;47.03;;;2.20;99.90;;;;;;5042297;28;20053;-80
2022/03/26 05:59:51;;;;;;;92.43;47.10;;;2.30;99.90;;;;;;5015473;28;20036;-81
2022/03/26 06:02:16;;;;;;;91.53;47.60;;;2.30;99.90;;;;;;5037253;28;20535;-80
2022/03/26 06:04:43;;;;;;;86.00;44.88;;;2.40;99.90;;;;;;5047752;28;20533;-80
2022/03/26 06:07:09;;;;;;;85.45;45.33;;;2.50;99.90;;;;;;5051648;28;20037;-80
2022/03/26 06:09:38;;;;;;;85.68;44.75;;;2.70;99.90;;;;;;5066098;28;20052;-79
2022/03/26 06:12:05;;;;;;;84.43;44.55;;;3.00;99.90;;;;;;5020075;28;20454;-79
2022/03/26 06:14:31;;;;;;;77.20;44.50;;;3.20;99.90;;;;;;5032720;28;20048;-80
2022/03/26 06:16:57;;;;;;;85.18;45.17;;;3.40;99.90;;;;;;5015988;28;20125;-80
2022/03/26 06:19:23;;;;;;;78.45;44.28;;;3.70;99.90;;;;;;5042285;28;20578;-80
2022/03/26 06:21:48;;;;;;;79.88;43.85;;;4.00;99.90;;;;;;5017396;28;20099;-80
2022/03/26 06:24:14;;;;;;;77.15;42.70;;;4.30;99.90;;;;;;5044170;28;20478;-80
2022/03/26 06:26:43;;;;;;;86.13;44.67;;;4.70;99.90;;;;;;5041593;28;20125;-79
2022/03/26 06:29:10;;;;;;;75.97;43.95;;;5.10;99.90;;;;;;5051422;28;20044;-79
2022/03/26 06:31:35;;;;;;;73.30;41.30;;;5.60;99.90;;;;;;5051861;28;20538;-80
2022/03/26 06:34:01;;;;;;;74.28;42.42;;;6.30;99.90;;;;;;5051728;28;20128;-80
2022/03/26 06:36:26;;;;;;;70.72;40.55;;;7.20;99.90;;;;;;5051821;28;20052;-80
2022/03/26 06:38:52;;;;;;;72.97;44.10;;;8.10;99.90;;;;;;5051472;28;20509;-80
2022/03/26 06:41:18;;;;;;;76.25;43.88;;;8.80;99.90;;;;;;5057782;28;20060;-80
2022/03/26 06:43:44;;;;;;;76.13;45.88;;;9.60;99.90;;;;;;5055473;28;20042;-80
2022/03/26 06:46:10;;;;;;;73.05;43.85;;;10.10;99.90;;;;;;5041092;28;20075;-80
2022/03/26 06:48:36;;;;;;;72.78;43.75;;;10.60;99.90;;;;;;5051381;28;20044;-79
2022/03/26 06:51:03;;;;;;;77.50;44.47;;;11.20;99.90;;;;;;5034616;28;20048;-79
2022/03/26 06:53:30;;;;;;;73.00;46.13;;;11.70;99.30;;;;;;5030534;28;20059;-79
2022/03/26 06:55:57;;;;;;;71.95;46.88;;;11.90;98.70;;;;;;5051022;28;20048;-79
2022/03/26 06:58:23;;;;;;;77.35;48.13;;;12.40;97.90;;;;;;5050138;28;20547;-79
2022/03/26 07:00:49;;;;;;;87.28;55.80;;;13.30;96.40;;;;;;5051125;28;20119;-79
2022/03/26 07:03:15;;;;;;;91.70;58.60;;;13.30;95.40;;;;;;5050697;28;20728;-80
2022/03/26 07:05:40;;;;;;;96.20;64.50;;;13.20;95.10;;;;;;5047961;28;20835;-79
2022/03/26 07:08:06;;;;;;;104.35;64.15;;;12.70;96.70;;;;;;5025177;28;20148;-78
2022/03/26 07:10:34;;;;;;;94.18;60.97;;;12.60;97.70;;;;;;5032538;28;20643;-81
2022/03/26 07:12:59;;;;;;;89.00;58.97;;;13.50;97.30;;;;;;5032059;28;20540;-79
2022/03/26 07:15:25;;;;;;;114.97;63.50;;;14.00;96.00;;;;;;5044395;28;20061;-78
2022/03/26 07:17:50;;;;;;;98.43;64.30;;;14.60;95.50;;;;;;5048736;28;20043;-78
2022/03/26 07:20:16;;;;;;;94.80;64.20;;;14.90;94.60;;;;;;5034056;28;20037;-79
2022/03/26 07:22:43;;;;;;;95.75;65.13;;;15.50;93.90;;;;;;5050889;28;20493;-79
2022/03/26 07:25:09;;;;;;;92.97;64.15;;;15.90;93.40;;;;;;5034226;28;20417;-79
2022/03/26 07:27:36;;;;;;;89.78;60.33;;;16.40;92.40;;;;;;5050477;28;20065;-79
2022/03/26 07:30:04;;;;;;;83.85;56.83;;;16.70;91.60;;;;;;5034194;28;20470;-78
2022/03/26 07:32:30;;;;;;;87.25;61.38;;;17.10;90.30;;;;;;5033976;28;20087;-79
2022/03/26 07:34:56;;;;;;;88.00;60.80;;;17.00;88.60;;;;;;5049135;28;20475;-79
2022/03/26 07:37:23;;;;;;;86.63;60.13;;;17.40;88.00;;;;;;5050763;28;20374;-79
2022/03/26 07:39:49;;;;;;;86.20;61.97;;;17.30;86.50;;;;;;5040655;28;20112;-79
2022/03/26 07:42:14;;;;;;;84.78;56.72;;;17.20;86.70;;;;;;5070194;28;20579;-79
2022/03/26 07:44:40;;;;;;;84.00;58.75;;;16.60;87.30;;;;;;5070293;28;20036;-79
2022/03/26 07:47:06;;;;;;;86.57;60.63;;;15.80;86.60;;;;;;5053613;28;20424;-79
2022/03/26 07:49:32;;;;;;;88.78;58.95;;;14.70;90.70;;;;;;5053944;28;20041;-79
2022/03/26 07:51:58;;;;;;;84.28;56.03;;;14.10;93.50;;;;;;5014120;28;20073;-79
2022/03/26 07:54:24;;;;;;;75.47;51.28;;;13.70;94.70;;;;;;5035585;28;20159;-79
2022/03/26 07:56:49;;;;;;;79.97;51.40;;;13.30;94.70;;;;;;5014780;28;20041;-79
2022/03/26 07:59:15;;;;;;;80.63;52.08;;;13.00;95.40;;;;;;5048806;28;20044;-80
2022/03/26 08:01:41;;;;;;;79.18;52.03;;;12.80;96.90;;;;;;5053716;28;20591;-79
2022/03/26 08:04:06;;;;;;;81.57;51.95;;;12.50;98.20;;;;;;5043726;28;20037;-78
2022/03/26 08:06:32;;;;;;;77.03;48.47;;;12.40;98.30;;;;;;5047033;28;20085;-79
2022/03/26 08:08:58;;;;;;;68.50;44.38;;;12.40;97.40;;;;;;5040434;28;20544;-79
2022/03/26 08:11:23;;;;;;;74.50;49.58;;;12.40;96.70;;;;;;5050251;28;20045;-79
2022/03/26 08:13:49;;;;;;;76.50;48.40;;;12.30;98.20;;;;;;5046030;28;20099;-79
2022/03/26 08:16:15;;;;;;;72.03;47.08;;;12.20;99.20;;;;;;5050141;28;20045;-79
2022/03/26 08:18:40;;;;;;;69.97;43.70;;;12.30;99.00;;;;;;5046633;28;20514;-79
2022/03/26 08:21:06;;;;;;;67.72;45.38;;;12.30;97.30;;;;;;5030525;28;20371;-78
2022/03/26 08:23:32;;;;;;;67.43;43.15;;;12.30;98.10;;;;;;5031591;28;20479;-79
2022/03/26 08:28:42;;;;;;;73.20;44.55;;;12.40;97.60;;;;;;5050204;28;20472;-78
2022/03/26 08:31:10;;;;;;;69.35;42.15;;;12.40;98.90;;;;;;5033697;28;20044;-79
2022/03/26 08:33:37;;;;;;;66.38;40.50;;;12.50;99.30;;;;;;5046918;28;20444;-80
2022/03/26 08:36:03;;;;;;;58.55;38.88;;;12.40;98.60;;;;;;5041398;28;20072;-79
2022/03/26 08:38:28;;;;;;;56.47;38.08;;;12.50;99.10;;;;;;5033682;28;20447;-79
2022/03/26 08:40:54;;;;;;;51.70;33.33;;;12.60;98.10;;;;;;5050331;28;20437;-79
2022/03/26 08:43:20;;;;;;;59.55;36.70;;;12.80;97.40;;;;;;5041412;28;20433;-79
2022/03/26 08:45:46;;;;;;;48.17;31.98;;;12.60;98.10;;;;;;5025833;28;20090;-79
2022/03/26 08:48:11;;;;;;;54.83;36.15;;;12.80;97.00;;;;;;5053363;28;20041;-79
2022/03/26 08:50:37;;;;;;;54.95;34.55;;;12.80;98.70;;;;;;5053197;28;20040;-79
2022/03/26 08:53:02;;;;;;;52.63;35.10;;;12.90;97.40;;;;;;5052967;28;20045;-78
2022/03/26 08:55:28;;;;;;;53.92;38.60;;;13.10;97.40;;;;;;5053364;28;20041;-80
2022/03/26 08:57:54;;;;;;;52.58;36.33;;;12.90;99.10;;;;;;5040799;28;20056;-78
2022/03/26 09:00:20;;;;;;;54.25;37.17;;;13.10;98.00;;;;;;5034457;28;20037;-79
2022/03/26 09:02:46;;;;;;;55.25;36.38;;;13.30;98.40;;;;;;5042325;28;20105;-79
2022/03/26 09:05:15;;;;;;;54.80;36.63;;;13.40;97.10;;;;;;5042070;28;20052;-78
2022/03/26 09:07:41;;;;;;;52.00;36.20;;;13.20;99.90;;;;;;5027641;28;20049;-78
2022/03/26 09:10:08;;;;;;;50.60;34.15;;;13.40;99.80;;;;;;5028178;28;20064;-79
2022/03/26 09:12:34;;;;;;;50.78;35.42;;;13.60;97.10;;;;;;5043461;28;20037;-78
2022/03/26 09:15:00;;;;;;;44.67;32.88;;;13.60;99.60;;;;;;5033195;28;20032;-78
2022/03/26 09:17:26;;;;;;;44.28;31.40;;;13.70;98.90;;;;;;5045855;28;20127;-78
2022/03/26 09:19:51;;;;;;;44.47;31.38;;;13.70;99.00;;;;;;5035728;28;20535;-78
2022/03/26 09:22:17;;;;;;;43.40;32.03;;;13.80;98.50;;;;;;5041451;28;20048;-79
2022/03/26 09:24:43;;;;;;;46.97;31.70;;;13.90;98.80;;;;;;5047305;28;20041;-78
2022/03/26 09:27:10;;;;;;;44.65;31.15;;;13.80;99.90;;;;;;5043076;28;20494;-78
2022/03/26 09:29:36;;;;;;;43.10;32.55;;;13.80;99.90;;;;;;5034596;28;20053;-78
2022/03/26 09:32:02;;;;;;;37.22;29.58;;;13.60;99.90;;;;;;5050737;28;20060;-78
2022/03/26 09:34:27;;;;;;;40.60;28.70;;;13.80;99.90;;;;;;5043466;28;20390;-78
2022/03/26 09:36:53;;;;;;;43.95;31.50;;;14.00;98.90;;;;;;5043311;28;20029;-79
2022/03/26 09:39:19;;;;;;;39.25;27.55;;;14.10;99.40;;;;;;5047963;28;20068;-80
2022/03/26 09:41:47;;;;;;;34.58;25.83;;;14.30;97.30;;;;;;5055008;28;20037;-78
2022/03/26 09:44:12;;;;;;;31.45;24.80;;;14.40;98.90;;;;;;5037014;28;20049;-78
2022/03/26 09:46:38;;;;;;;35.63;26.88;;;14.30;98.90;;;;;;5032042;28;20034;-77
2022/03/26 09:49:05;;;;;;;36.83;25.42;;;14.50;99.30;;;;;;5044451;28;20436;-78
2022/03/26 09:51:32;;;;;;;36.60;24.50;;;14.50;98.40;;;;;;5069453;28;20043;-79
2022/03/26 09:53:58;;;;;;;30.63;23.02;;;14.70;97.40;;;;;;5031942;28;20124;-78
2022/03/26 09:56:25;;;;;;;32.58;24.40;;;14.60;97.30;;;;;;5042068;28;20123;-78
2022/03/26 09:58:52;;;;;;;29.60;22.80;;;14.90;96.10;;;;;;5032642;28;20457;-78
2022/03/26 10:01:22;;;;;;;29.15;22.75;;;15.00;96.20;;;;;;5032261;28;20529;-78
2022/03/26 10:04:10;;;;;;;25.90;18.90;;;15.00;97.50;;;;;;5032155;28;20125;-78
2022/03/26 10:06:37;;;;;;;23.65;18.75;;;15.10;96.00;;;;;;5051428;28;20052;-79
2022/03/26 10:09:03;;;;;;;30.40;22.52;;;15.20;94.60;;;;;;5052097;28;20056;-78
2022/03/26 10:11:33;;;;;;;27.90;19.75;;;15.20;96.50;;;;;;5052172;28;20045;-78
2022/03/26 10:13:59;;;;;;;25.27;19.25;;;15.20;96.20;;;;;;5051866;28;20044;-78
2022/03/26 10:16:25;;;;;;;24.75;18.60;;;15.30;96.30;;;;;;5047766;28;20107;-78
2022/03/26 10:18:51;;;;;;;22.60;16.90;;;15.40;96.20;;;;;;5045407;28;20459;-78
2022/03/26 10:21:19;;;;;;;26.50;17.13;;;15.40;95.80;;;;;;5035128;28;20060;-78
2022/03/26 10:23:47;;;;;;;19.85;16.63;;;15.30;96.10;;;;;;5051188;28;20452;-78
2022/03/26 10:26:13;;;;;;;20.98;15.93;;;15.20;95.60;;;;;;5031768;28;20044;-78
2022/03/26 10:28:40;;;;;;;22.77;17.48;;;15.50;93.80;;;;;;5034210;28;20124;-78
2022/03/26 10:34:21;;;;;;;23.30;17.17;;;15.60;94.80;;;;;;5038740;28;20056;-78
2022/03/26 10:36:56;;;;;;;19.65;15.15;;;15.50;95.50;;;;;;5043559;28;20056;-78
2022/03/26 10:39:30;;;;;;;24.52;15.63;;;15.60;95.00;;;;;;5049110;28;20075;-78
2022/03/26 10:41:57;;;;;;;17.63;13.85;;;15.70;94.90;;;;;;5048188;28;20464;-78
2022/03/26 10:44:24;;;;;;;13.52;11.50;;;15.80;94.30;;;;;;5040460;28;20048;-77
2022/03/26 10:46:54;;;;;;;13.95;11.68;;;15.80;93.60;;;;;;5034077;28;20032;-78
2022/03/26 10:49:36;;;;;;;15.00;11.88;;;15.90;93.60;;;;;;5048377;28;20127;-78
2022/03/26 10:52:16;;;;;;;16.35;13.15;;;15.90;93.50;;;;;;5047367;28;20098;-77
2022/03/26 10:54:42;;;;;;;17.45;10.48;;;16.00;92.90;;;;;;5045750;28;20045;-78
2022/03/26 10:57:08;;;;;;;14.68;12.35;;;16.00;91.80;;;;;;5035283;28;20423;-78
2022/03/26 10:59:34;;;;;;;17.67;12.15;;;16.00;92.40;;;;;;5049543;28;20061;-78
2022/03/26 11:02:01;;;;;;;16.45;12.13;;;16.10;91.70;;;;;;5037533;28;20055;-78
2022/03/26 11:04:27;;;;;;;19.75;14.38;;;16.00;92.30;;;;;;5030902;28;20048;-76
2022/03/26 11:06:55;;;;;;;17.23;12.88;;;16.00;92.70;;;;;;5030158;28;20077;-77
2022/03/26 11:09:21;;;;;;;16.27;12.52;;;16.00;92.90;;;;;;5040503;28;20091;-76
2022/03/26 11:11:49;;;;;;;18.23;12.38;;;16.00;93.00;;;;;;5047519;28;20455;-77
2022/03/26 11:14:20;;;;;;;13.98;12.57;;;16.00;92.90;;;;;;5036811;28;20052;-76
2022/03/26 11:17:14;;;;;;;18.27;10.90;;;16.00;92.90;;;;;;5034421;28;20041;-76
2022/03/26 11:20:10;;;;;;;14.27;12.20;;;16.10;92.20;;;;;;5042884;28;20098;-76
2022/03/26 11:23:06;;;;;;;12.18;10.77;;;16.00;92.50;;;;;;5013907;28;20480;-76
2022/03/26 11:25:59;;;;;;;13.13;11.00;;;16.00;92.90;;;;;;5044842;28;20068;-76
2022/03/26 11:28:54;;;;;;;12.73;10.48;;;16.10;91.70;;;;;;5050034;28;20125;-76
2022/03/26 11:31:42;;;;;;;13.45;11.02;;;16.20;91.20;;;;;;5032219;28;20040;-76
2022/03/26 11:34:10;;;;;;;13.13;10.38;;;16.20;91.30;;;;;;5031386;28;20480;-76
2022/03/26 11:36:35;;;;;;;13.55;11.00;;;16.30;90.40;;;;;;5030470;28;20041;-76
2022/03/26 11:39:17;;;;;;;12.15;10.50;;;16.30;91.70;;;;;;5018194;28;20720;-75
2022/03/26 11:41:44;;;;;;;13.48;10.85;;;16.30;90.80;;;;;;5041470;28;20045;-75
2022/03/26 11:44:10;;;;;;;14.18;10.48;;;16.10;91.60;;;;;;5032929;28;20434;-75
2022/03/26 11:52:27;;;;;;;14.05;8.23;;;16.30;90.90;;;;;;5042272;28;20051;-76
2022/03/26 11:54:59;;;;;;;9.43;7.63;;;16.40;90.40;;;;;;5036349;28;20082;-76
2022/03/26 11:57:25;;;;;;;;;;;16.20;91.60;;;;;;5050205;28;20045;-77
2022/03/26 11:59:52;;;;;;;10.57;7.57;;;16.40;92.10;;;;;;5040857;28;19917;-77
2022/03/26 12:02:27;;;;;;;9.90;7.70;;;16.30;92.50;;;;;;5036945;28;20049;-77
2022/03/26 12:08:18;;;;;;;10.43;6.70;;;16.40;91.50;;;;;;5035701;28;20045;-77
2022/03/26 12:10:44;;;;;;;7.30;6.60;;;16.40;90.50;;;;;;5019743;28;20073;-77
2022/03/26 12:13:18;;;;;;;7.05;6.10;;;16.50;90.90;;;;;;5046755;28;20060;-77
2022/03/26 12:15:58;;;;;;;8.85;6.80;;;16.40;91.70;;;;;;5043350;28;20032;-78
2022/03/26 12:18:31;;;;;;;6.80;6.10;;;16.40;92.20;;;;;;5029601;28;20077;-77
2022/03/26 12:21:09;;;;;;;7.63;6.15;;;16.70;90.80;;;;;;5049890;28;20056;-77
2022/03/26 12:23:35;;;;;;;7.40;5.82;;;16.70;91.60;;;;;;5049387;28;20036;-78
2022/03/26 12:26:08;;;;;;;6.90;5.55;;;16.90;91.80;;;;;;5046098;28;20075;-77
2022/03/26 12:28:43;;;;;;;6.95;5.07;;;17.00;90.80;;;;;;5050547;28;20056;-78
2022/03/26 12:31:10;;;;;;;6.07;4.88;;;16.90;91.20;;;;;;5041249;28;20475;-77
2022/03/26 12:33:47;;;;;;;6.10;5.15;;;17.10;89.80;;;;;;5025704;28;20037;-77
2022/03/26 12:36:15;;;;;;;8.73;5.07;;;17.20;88.60;;;;;;5050352;28;20044;-78
2022/03/26 12:38:48;;;;;;;7.20;4.72;;;17.40;88.00;;;;;;5045207;28;20443;-77
2022/03/26 12:41:14;;;;;;;5.20;4.68;;;17.50;85.10;;;;;;5039422;28;20049;-77
2022/03/26 12:43:40;;;;;;;6.47;4.90;;;17.40;87.40;;;;;;5034865;28;20029;-78
2022/03/26 12:46:10;;;;;;;5.78;4.80;;;17.50;85.70;;;;;;5043368;28;20040;-77
2022/03/26 12:48:36;;;;;;;5.30;4.80;;;17.40;86.40;;;;;;5036532;28;20123;-78